Latest Weather Observations for Urandangi

IDQ60801

Issued at 7:02 pm EST Monday 31 August 2015 (issued every 30 minutes, with the page automatically refreshed every 10 minutes)

About weather observations | Map of weather stations | Latest weather observations for QLD | Other Formats
Station Details ID: 037058 Name: URANDANGI AERODROME Lat: -21.60 Lon: 138.37 Height: 178.6 m
Data from the previous 72 hours. | See also: Recent months at Urandangi
Date/Time
EST
Temp
°C
App
Temp
°C
Dew
Point
Rel
Hum
%
Delta-T
°C
Wind Press
QNH
hPa
Press
MSL
hPa
Rain
since 9 am
mm
Dir
 
Spd
km/h
Gust
km/h
Spd
kts
Gust
kts
31/07:00pm 23.4 18.5 -7.6 12 12.3 SSE 11 13 6 7 1015.7 1015.4 0.0
31/06:30pm 25.8 20.5 -6.9 11 13.4 SSE 13 19 7 10 1015.6 1015.3 0.0
31/06:00pm 27.2 21.5 -7.0 10 14.2 SSE 15 19 8 10 1015.4 1015.0 0.0
31/05:30pm 27.9 22.3 -6.5 10 14.5 SSE 15 20 8 11 1015.3 1014.9 0.0
31/05:00pm 28.3 23.0 -7.6 9 14.9 SSE 13 20 7 11 1015.2 1014.8 0.0
31/04:30pm 28.4 23.2 -6.1 10 14.7 S 13 22 7 12 1015.2 1014.8 0.0
31/04:00pm 28.8 23.9 -7.2 9 15.1 SE 11 24 6 13 1015.4 1015.0 0.0
31/03:30pm 28.3 23.0 -7.6 9 14.9 SE 13 24 7 13 1015.8 1015.5 0.0
31/03:00pm 28.5 23.9 -7.4 9 15.0 SE 9 30 5 16 1015.9 1015.6 0.0
31/02:30pm 27.8 22.8 -7.9 9 14.7 SE 11 17 6 9 1016.4 1016.1 0.0
31/02:00pm 27.3 22.8 -6.9 10 14.2 SSE 9 15 5 8 1016.9 1016.6 0.0
31/01:30pm 27.9 23.4 -6.5 10 14.5 SE 9 17 5 9 1017.3 1017.0 0.0
31/01:00pm 26.4 22.5 -6.4 11 13.7 SSE 6 15 3 8 1017.6 1017.3 0.0
31/12:30pm 26.2 21.5 -5.4 12 13.4 ESE 11 17 6 9 1018.4 1018.0 0.0
31/12:00pm 25.5 21.2 -4.9 13 12.9 SE 9 17 5 9 1018.9 1018.5 0.0
31/11:30am 24.9 19.9 -4.4 14 12.5 SE 13 19 7 10 1019.3 1018.9 0.0
31/11:00am 24.3 19.4 -3.1 16 11.9 E 13 22 7 12 1019.6 1019.2 0.0
31/10:30am 23.3 17.4 -2.3 18 11.2 ESE 19 24 10 13 1019.7 1019.3 0.0
31/10:00am 22.0 15.9 -2.7 19 10.6 E 20 26 11 14 1019.9 1019.5 0.0
31/09:30am 20.2 13.7 -2.8 21 9.7 ESE 22 32 12 17 1019.8 1019.4 0.0
31/09:00am 17.4 13.3 -3.4 24 8.4 ESE 9 13 5 7 1019.8 1019.4 0.0
31/08:30am 14.9 11.1 -3.4 28 7.2 ESE 7 9 4 5 1019.6 1019.2 0.0
31/08:00am 10.9 7.1 -5.5 31 5.9 ESE 6 6 3 3 1019.4 1019.0 0.0
31/07:30am 7.6 3.6 -7.2 34 4.9 E 6 6 3 3 1019.2 1018.8 0.0
31/07:00am 7.1 3.6 -5.9 39 4.4 E 4 4 2 2 1019.0 1018.6 0.0
31/06:30am 6.4 2.5 -6.9 38 4.4 ESE 6 6 3 3 1018.7 1018.3 0.0
31/06:00am 7.4 3.5 -6.3 37 4.6 ESE 6 6 3 3 1018.7 1018.3 0.0
31/05:30am 7.1 3.2 -6.2 38 4.5 SE 6 6 3 3 1018.6 1018.2 0.0
31/05:00am 7.5 3.7 -5.5 39 4.5 S 6 9 3 5 1018.6 1018.2 0.0
31/04:30am 7.8 3.4 -6.0 37 4.7 SSE 9 9 5 5 1018.5 1018.1 0.0
31/04:00am 8.1 4.2 -6.4 35 4.9 SE 6 7 3 4 1018.6 1018.2 0.0
31/03:30am 8.7 4.3 -5.9 35 5.1 SSE 9 9 5 5 1018.7 1018.3 0.0
31/03:00am 9.1 5.0 -6.7 32 5.4 SE 7 7 4 4 1019.0 1018.6 0.0
31/02:30am 10.4 6.4 -6.0 31 5.8 ESE 7 7 4 4 1019.0 1018.6 0.0
31/02:00am 10.5 6.6 -6.3 30 5.9 SE 6 7 3 4 1019.2 1018.8 0.0
31/01:30am 10.4 6.2 -7.3 28 6.1 SE 7 9 4 5 1019.4 1019.0 0.0
31/01:00am 10.8 6.6 -7.9 26 6.3 ESE 7 7 4 4 1019.6 1019.2 0.0
31/12:30am 11.7 7.7 -7.1 26 6.6 SE 6 7 3 4 1019.7 1019.3 0.0
31/12:00am 11.4 7.4 -7.9 25 6.6 SE 6 7 3 4 1019.8 1019.4 0.0
 
Date/Time
EST
Temp
°C
App
Temp
°C
Dew
Point
Rel
Hum
%
Delta-T
°C
Wind Press
QNH
hPa
Press
MSL
hPa
Rain
since 9 am
mm
Dir
 
Spd
km/h
Gust
km/h
Spd
kts
Gust
kts
30/11:30pm 12.8 8.7 -6.7 25 7.0 ESE 7 9 4 5 1019.8 1019.4 0.0
30/11:00pm 13.5 9.0 -6.6 24 7.3 SSE 9 11 5 6 1019.8 1019.4 0.0
30/10:30pm 14.1 10.2 -6.1 24 7.5 SE 6 7 3 4 1020.0 1019.6 0.0
30/10:00pm 14.1 10.1 -7.9 21 7.8 SSE 6 7 3 4 1019.9 1019.5 0.0
30/09:30pm 15.9 11.4 -6.4 21 8.4 SSE 9 9 5 5 1019.7 1019.3 0.0
30/09:00pm 16.9 12.5 -6.2 20 8.8 SSE 9 11 5 6 1019.5 1019.1 0.0
30/08:30pm 16.7 12.6 -7.0 19 8.8 SSE 7 9 4 5 1019.2 1018.8 0.0
30/08:00pm 18.7 14.3 -6.1 18 9.6 SSE 9 9 5 5 1018.8 1018.4 0.0
30/07:30pm 19.7 15.2 -6.8 16 10.3 S 9 11 5 6 1018.3 1017.9 0.0
30/07:00pm 21.8 16.9 -6.8 14 11.3 S 11 13 6 7 1018.0 1017.6 0.0
30/06:30pm 23.8 18.1 -7.3 12 12.4 SSE 15 20 8 11 1017.6 1017.3 0.0
30/06:00pm 25.5 19.5 -7.1 11 13.3 SSE 17 22 9 12 1017.4 1017.1 0.0
30/05:30pm 26.1 20.5 -6.6 11 13.6 S 15 22 8 12 1017.4 1017.1 0.0
30/05:00pm 26.2 21.0 -6.5 11 13.6 SSE 13 24 7 13 1017.4 1017.1 0.0
30/04:30pm 26.6 22.2 -6.2 11 13.8 ESE 9 19 5 10 1017.3 1017.0 0.0
30/04:00pm 26.6 21.5 -5.1 12 13.5 S 13 22 7 12 1017.4 1017.1 0.0
30/03:30pm 26.4 21.3 -5.3 12 13.5 S 13 22 7 12 1017.6 1017.3 0.0
30/03:00pm 25.9 20.4 -5.6 12 13.2 SSE 15 24 8 13 1018.1 1017.7 0.0
30/02:30pm 25.8 20.3 -5.7 12 13.2 SSE 15 28 8 15 1018.4 1018.0 0.0
30/02:00pm 25.6 19.4 -4.8 13 12.9 SSE 19 30 10 16 1018.9 1018.5 0.0
30/01:30pm 25.7 19.4 -3.8 14 12.8 SSE 20 30 11 16 1019.3 1018.9 0.0
30/01:00pm 24.9 19.2 -3.5 15 12.3 SSE 17 28 9 15 1020.0 1019.6 0.0
30/12:30pm 24.6 18.9 -3.7 15 12.2 SSE 17 30 9 16 1020.5 1020.2 0.0
30/12:00pm 24.1 18.2 -2.4 17 11.6 SSE 19 32 10 17 1021.1 1020.8 0.0
30/11:30am 23.9 18.7 -2.6 17 11.6 SSE 15 24 8 13 1021.5 1021.2 0.0
30/11:00am 22.7 17.3 -1.4 20 10.7 SE 17 26 9 14 1022.0 1021.7 0.0
30/10:30am 22.1 16.4 -0.6 22 10.2 SE 19 22 10 12 1022.4 1022.1 0.0
30/10:00am 20.6 16.4 -0.7 24 9.4 SE 11 17 6 9 1022.3 1022.0 0.0
30/09:30am 17.9 13.7 -0.8 28 8.1 SE 11 17 6 9 1022.4 1022.1 0.0
30/09:00am 15.6 11.8 -1.0 32 6.9 SSE 9 15 5 8 1022.2 1021.9 0.2
30/08:30am 13.7 9.8 -1.5 35 6.2 SE 9 15 5 8 1021.8 1021.5 0.2
30/08:00am 11.5 8.2 -1.6 40 5.2 SE 6 7 3 4 1021.5 1021.2 0.2
30/07:30am 8.5 5.1 -2.1 47 4.0 ENE 6 6 3 3 1021.3 1021.0 0.2
30/07:00am 7.9 4.9 -1.6 51 3.6 E 4 4 2 2 1020.7 1020.4 0.2
30/06:30am 7.2 4.2 -2.2 51 3.5 ESE 4 6 2 3 1020.4 1020.1 0.2
30/06:00am 7.5 3.9 -2.2 50 3.6 ESE 7 9 4 5 1020.2 1019.8 0.2
30/05:30am 7.8 4.3 -3.1 46 4.0 ESE 6 7 3 4 1019.9 1019.5 0.2
30/05:00am 10.0 6.7 -1.1 46 4.4 SSE 6 7 3 4 1019.9 1019.5 0.2
30/04:30am 10.0 6.5 -1.1 46 4.4 S 7 9 4 5 1020.0 1019.6 0.2
30/04:00am 10.4 6.5 -1.3 44 4.6 SSE 9 9 5 5 1020.1 1019.7 0.2
30/03:30am 11.2 7.3 -1.5 41 5.0 SSE 9 13 5 7 1020.2 1019.8 0.2
30/03:00am 11.9 8.0 -1.6 39 5.4 S 9 13 5 7 1020.1 1019.7 0.2
30/02:30am 12.4 8.6 -1.1 39 5.5 SSE 9 11 5 6 1020.4 1020.1 0.2
30/02:00am 13.6 9.4 -1.2 36 6.0 SSE 11 13 6 7 1020.6 1020.3 0.2
30/01:30am 14.2 9.7 -0.6 36 6.2 SSE 13 15 7 8 1020.7 1020.4 0.2
30/01:00am 13.9 9.8 -0.5 37 6.0 SSE 11 13 6 7 1020.9 1020.6 0.2
30/12:30am 15.0 11.3 -0.3 35 6.5 S 9 13 5 7 1021.0 1020.7 0.2
30/12:00am 16.7 12.2 -0.1 32 7.2 S 13 19 7 10 1020.8 1020.5 0.2
 
Date/Time
EST
Temp
°C
App
Temp
°C
Dew
Point
Rel
Hum
%
Delta-T
°C
Wind Press
QNH
hPa
Press
MSL
hPa
Rain
since 9 am
mm
Dir
 
Spd
km/h
Gust
km/h
Spd
kts
Gust
kts
29/11:30pm 15.8 11.7 0.0 34 6.8 S 11 15 6 8 1020.8 1020.5 0.2
29/11:00pm 15.7 11.7 0.3 35 6.6 SSE 11 13 6 7 1020.7 1020.4 0.2
29/10:30pm 17.0 13.0 0.6 33 7.2 SSE 11 13 6 7 1020.7 1020.4 0.2
29/10:00pm 17.9 13.9 0.6 31 7.6 SE 11 13 6 7 1020.6 1020.3 0.2
29/09:30pm 18.6 14.3 1.2 31 7.9 SSE 13 15 7 8 1020.5 1020.2 0.2
29/09:00pm 18.2 14.2 0.8 31 7.7 SSE 11 13 6 7 1020.3 1019.9 0.2
29/08:30pm 19.4 15.5 1.4 30 8.2 S 11 13 6 7 1020.0 1019.6 0.2
29/08:00pm 20.6 16.8 1.5 28 8.8 S 11 13 6 7 1019.6 1019.2 0.2
29/07:30pm 21.1 17.6 1.4 27 9.1 S 9 11 5 6 1019.2 1018.8 0.2
29/07:00pm 23.1 19.3 1.5 24 10.1 SSE 11 15 6 8 1018.8 1018.4 0.2
29/06:30pm 24.7 20.5 1.6 22 11.0 SSE 13 20 7 11 1018.5 1018.1 0.2
29/06:00pm 25.7 20.4 1.8 21 11.5 SSE 19 24 10 13 1018.2 1017.8 0.2
29/05:30pm 26.3 21.3 1.6 20 11.9 SSE 17 24 9 13 1018.1 1017.7 0.2
29/05:00pm 26.5 21.2 1.7 20 12.0 S 19 28 10 15 1017.9 1017.5 0.2
29/04:30pm 26.6 21.8 2.5 21 11.8 SSE 17 24 9 13 1018.0 1017.6 0.2
29/04:00pm 26.9 22.0 2.1 20 12.1 SSE 17 22 9 12 1018.0 1017.6 0.2
29/03:30pm 27.1 23.0 2.2 20 12.2 S 13 22 7 12 1018.3 1017.9 0.2
29/03:00pm 26.9 22.8 2.1 20 12.1 SSE 13 20 7 11 1018.7 1018.3 0.2
29/02:30pm 26.2 21.2 1.5 20 11.9 S 17 24 9 13 1019.2 1018.8 0.2
29/02:00pm 26.1 21.0 0.7 19 12.0 SE 17 28 9 15 1019.5 1019.1 0.2
29/01:30pm 25.4 20.6 0.1 19 11.8 SE 15 22 8 12 1020.1 1019.7 0.2
29/01:00pm 24.5 19.3 0.1 20 11.3 SSE 17 26 9 14 1020.8 1020.5 0.2
29/12:30pm 24.3 19.1 -0.1 20 11.2 SSE 17 30 9 16 1021.2 1020.9 0.2
29/12:00pm 24.5 18.9 0.1 20 11.3 SE 19 26 10 14 1021.6 1021.3 0.2
29/11:30am 22.8 17.0 0.0 22 10.4 SE 20 30 11 16 1022.0 1021.7 0.2
29/11:00am 22.8 17.1 0.6 23 10.2 SSE 20 30 11 16 1022.6 1022.3 0.2
29/10:30am 21.9 15.5 1.0 25 9.7 SE 24 33 13 18 1022.6 1022.3 0.2
29/10:00am 19.9 14.3 1.4 29 8.4 SSE 20 28 11 15 1022.6 1022.3 0.0
29/09:30am 17.9 13.0 1.8 34 7.3 SSE 17 24 9 13 1022.3 1022.0 0.0
29/09:00am 16.7 11.4 2.0 37 6.6 SSE 19 24 10 13 1022.0 1021.7 0.0
29/08:30am 15.1 11.1 2.6 43 5.6 SE 13 17 7 9 1021.5 1021.2 0.0
29/08:00am 12.5 9.7 2.9 52 4.2 ESE 7 9 4 5 1021.2 1020.9 0.0
29/07:30am 10.4 7.6 2.0 56 3.6 SE 6 7 3 4 1021.1 1020.8 0.0
29/07:00am 9.8 6.9 1.7 57 3.4 SE 6 7 3 4 1020.8 1020.5 0.0
29/06:30am 9.7 6.6 1.4 56 3.5 SE 7 9 4 5 1020.8 1020.5 0.0
29/06:00am 10.8 7.4 1.9 54 3.8 S 9 9 5 5 1020.7 1020.4 0.0
29/05:30am 11.3 7.9 2.1 53 4.0 S 9 9 5 5 1020.5 1020.2 0.0
29/05:00am 11.9 8.5 2.1 51 4.2 S 9 11 5 6 1020.4 1020.1 0.0
29/04:30am 12.8 9.4 1.8 47 4.8 SSE 9 9 5 5 1020.6 1020.3 0.0
29/04:00am 13.9 10.2 2.2 45 5.2 S 11 13 6 7 1020.7 1020.4 0.0
29/03:30am 14.7 10.9 1.9 42 5.7 SE 11 13 6 7 1020.4 1020.1 0.0
29/03:00am 15.6 11.9 2.4 41 5.9 SSE 11 15 6 8 1020.9 1020.6 0.0
29/02:30am 14.1 11.8 3.0 47 5.0 SSE 4 6 2 3 1021.2 1020.9 0.0
29/02:00am 13.9 11.1 3.1 48 4.9 SSE 7 9 4 5 1021.3 1021.0 0.0
29/01:30am 13.4 10.2 3.2 50 4.6 S 9 9 5 5 1021.8 1021.5 0.0
29/01:00am 14.5 11.9 3.3 47 5.1 SSE 6 7 3 4 1021.7 1021.4 0.0
29/12:30am 15.3 13.9 3.8 46 5.3 CALM 0 4 0 2 1022.0 1021.7 0.0
29/12:00am 16.5 14.7 3.2 41 6.1 SSW 2 4 1 2 1022.0 1021.7 0.0
 
Date/Time
EST
Temp
°C
App
Temp
°C
Dew
Point
Rel
Hum
%
Delta-T
°C
Wind Press
QNH
hPa
Press
MSL
hPa
Rain
since 9 am
mm
Dir
 
Spd
km/h
Gust
km/h
Spd
kts
Gust
kts
28/11:30pm 17.1 14.5 3.1 39 6.5 SSW 6 9 3 5 1021.6 1021.3 0.0
28/11:00pm 17.6 14.0 3.1 38 6.7 S 11 15 6 8 1021.1 1020.8 0.0
28/10:30pm 16.8 13.4 3.8 42 6.1 SSE 11 13 6 7 1021.4 1021.1 0.0
28/10:00pm 16.9 14.2 3.9 42 6.1 SSE 7 9 4 5 1021.5 1021.2 0.0
28/09:30pm 17.0 14.5 3.7 41 6.2 SSW 6 9 3 5 1021.5 1021.2 0.0
28/09:00pm 17.5 14.3 3.0 38 6.7 SW 9 13 5 7 1021.4 1021.1 0.0
28/08:30pm 17.8 15.1 2.9 37 6.9 SSE 6 7 3 4 1020.8 1020.5 0.0
28/08:00pm 18.3 15.1 3.0 36 7.1 SSE 9 9 5 5 1020.6 1020.3 0.0
28/07:30pm 19.1 16.3 2.9 34 7.6 SSE 7 11 4 6 1020.7 1020.4 0.0

Other Formats:

Comma delimited format used in spreadsheet applications
http://www.bom.gov.au/fwo/IDQ60801/IDQ60801.94344.axf

JavaScript Object Notation format (JSON) in row-major order
http://www.bom.gov.au/fwo/IDQ60801/IDQ60801.94344.json